Terminal Aerodrome Forecast
Issued by NWS

Home | Current Version | Previous Version | Text Only | Print | Product List | Glossary On
Versions: 1 2 3 4 5 6 7 8 9 10 11 12 13 14 15 16 17 18 19 20 21 22 23 24 25 26 27 28 29 30
000
FTAK31 PANC 221735
TAFAGK
TAF
PAGK 221735Z 2218/2318 31003KT P6SM SCT007 BKN015
      TEMPO 2218/2220 OVC007
     FM222000 VRB03KT P6SM SCT015 BKN100
      TEMPO 2220/2222 BKN015
     FM230000 VRB05KT P6SM FEW025 SCT100
     FM231500 16005KT P6SM SCT040 OVC100=

USA.gov is the U.S. government's official web portal to all federal, state and local government web resources and services.